Startpagina
METAR-TAF:

METAR-TAF

Vliegvelden :

Iranshahr, Iran

breedte: 27-12N, lengte: 060-42E, hoogte: 591 m

Actueel weer

Dit bericht is 40 minuten geleden gemaakt, om 08:00 UTC
Wind 4 kt uit het zuiden
Temperatuur 38°C
Vochtigheid 26%
Druk 1010 hPa
Zicht 10 km of meer
geen wolken onder 1500 m en geen cumulonimbus

METAR: OIZI 190800Z 19004KT CAVOK 38/15 Q1010

Tijdstip: 13:10 (08:40 UTC)


TAF: ontbreekt

Waarnemingen en weersverwachtingen van meer dan 4000 vliegvelden (METAR en TAF).

De beschikbare stations zijn de gele en rode punten op de kaart.

Ga met uw muis naar het station om de naam te zien.

Klik dan om waarnemingen en weersverwachtingen te zien.

kaart wijzigen: klik op de groene knoppen met een zwart kruis om in te zoomen, op de groene knop met een streepje om uit te zoomen of op de groene pijlen voor aangrenzende kaarten.


METAR-TAF: